Time;durP1;ratioP1;P1;durP2;ratioP2;P2;SDS_P1;SDS_P2;PMS_P1;PMS_P2;Temp;Humidity;BMP_temperature;BMP_pressure;BME280_temperature;BME280_humidity;BME280_pressure;Samples;Min_cycle;Max_cycle;Signal;HPM_P1;HPM_P2
2022/10/24 00:01:01;;;;;;;3.28;1.05;;;;;;;;;;4935579;29;20048;-64
2022/10/24 00:03:27;;;;;;;5.43;2.17;;;;;;;;;;4920575;29;20492;-63
2022/10/24 00:05:53;;;;;;;6.93;1.60;;;;;;;;;;4935044;29;20058;-64
2022/10/24 00:08:20;;;;;;;7.05;1.73;;;;;;;;;;4933963;29;20552;-64
2022/10/24 00:10:47;;;;;;;7.13;1.70;;;;;;;;;;4919922;29;20047;-64
2022/10/24 00:13:14;;;;;;;8.15;1.50;;;;;;;;;;4935904;29;20370;-64
2022/10/24 00:15:43;;;;;;;6.32;1.92;;;;;;;;;;4918293;29;20456;-64
2022/10/24 00:18:09;;;;;;;8.98;2.63;;;;;;;;;;4919199;29;20043;-64
2022/10/24 00:20:37;;;;;;;6.38;1.80;;;;;;;;;;4920308;29;20094;-64
2022/10/24 00:23:03;;;;;;;6.70;2.05;;;;;;;;;;4918479;29;20107;-64
2022/10/24 00:25:29;;;;;;;5.18;1.60;;;;;;;;;;4934826;29;20110;-63
2022/10/24 00:27:55;;;;;;;11.10;2.10;;;;;;;;;;4934770;29;20083;-63
2022/10/24 00:30:21;;;;;;;4.72;1.90;;;;;;;;;;4935407;29;20051;-63
2022/10/24 00:32:47;;;;;;;6.60;1.52;;;;;;;;;;4919544;29;20160;-63
2022/10/24 00:35:13;;;;;;;8.23;1.80;;;;;;;;;;4933723;29;20052;-64
2022/10/24 00:37:40;;;;;;;5.28;1.55;;;;;;;;;;4933367;29;20083;-64
2022/10/24 00:40:06;;;;;;;14.13;2.22;;;;;;;;;;4918746;29;20114;-64
2022/10/24 00:42:32;;;;;;;4.82;1.55;;;;;;;;;;4936642;29;20457;-64
2022/10/24 00:44:58;;;;;;;5.50;1.75;;;;;;;;;;4934433;29;20131;-64
2022/10/24 00:47:25;;;;;;;8.15;1.75;;;;;;;;;;4924297;29;20047;-63
2022/10/24 00:49:54;;;;;;;7.18;2.45;;;;;;;;;;4934537;29;20527;-64
2022/10/24 00:52:22;;;;;;;6.22;1.45;;;;;;;;;;4933944;29;20074;-64
2022/10/24 00:54:51;;;;;;;6.30;1.73;;;;;;;;;;4918039;29;20445;-63
2022/10/24 00:57:31;;;;;;;8.95;2.08;;;;;;;;;;4934172;29;20131;-64
2022/10/24 01:00:00;;;;;;;7.55;1.65;;;;;;;;;;4934760;29;20139;-64
2022/10/24 01:02:26;;;;;;;8.35;1.60;;;;;;;;;;4919220;29;20119;-64
2022/10/24 01:04:55;;;;;;;9.35;2.78;;;;;;;;;;4932979;29;20075;-64
2022/10/24 01:07:27;;;;;;;9.02;2.53;;;;;;;;;;4920770;29;20046;-64
2022/10/24 01:09:59;;;;;;;5.75;1.88;;;;;;;;;;4933122;29;20047;-64
2022/10/24 01:12:25;;;;;;;6.38;1.63;;;;;;;;;;4919251;29;20142;-64
2022/10/24 01:14:51;;;;;;;6.82;2.03;;;;;;;;;;4933057;29;20135;-64
2022/10/24 01:17:26;;;;;;;7.03;2.17;;;;;;;;;;4933834;29;20048;-64
2022/10/24 01:20:05;;;;;;;6.10;1.95;;;;;;;;;;4935527;29;20048;-63
2022/10/24 01:22:35;;;;;;;6.50;1.75;;;;;;;;;;4934224;29;20067;-64
2022/10/24 01:25:01;;;;;;;7.85;2.60;;;;;;;;;;4932817;29;20040;-64
2022/10/24 01:27:27;;;;;;;8.32;1.70;;;;;;;;;;4932949;29;20401;-63
2022/10/24 01:30:02;;;;;;;11.70;2.28;;;;;;;;;;4918344;29;20057;-64
2022/10/24 01:32:36;;;;;;;5.15;1.83;;;;;;;;;;4934649;29;20054;-64
2022/10/24 01:35:02;;;;;;;8.50;2.15;;;;;;;;;;4932418;29;20055;-64
2022/10/24 01:37:46;;;;;;;9.55;2.17;;;;;;;;;;4933805;29;20044;-64
2022/10/24 01:40:21;;;;;;;8.18;2.22;;;;;;;;;;4935339;29;20059;-63
2022/10/24 01:42:50;;;;;;;6.68;2.08;;;;;;;;;;4918164;29;20044;-64
2022/10/24 01:45:19;;;;;;;11.30;2.65;;;;;;;;;;4911070;29;20523;-63
2022/10/24 01:47:48;;;;;;;7.15;2.28;;;;;;;;;;4933283;29;20127;-63
2022/10/24 01:50:15;;;;;;;7.30;2.40;;;;;;;;;;4918044;29;20051;-63
2022/10/24 01:52:43;;;;;;;8.18;2.30;;;;;;;;;;4918397;29;20054;-63
2022/10/24 01:55:10;;;;;;;8.75;2.85;;;;;;;;;;4932348;29;20052;-63
2022/10/24 01:57:37;;;;;;;6.43;2.60;;;;;;;;;;4917117;29;20051;-64
2022/10/24 02:00:04;;;;;;;6.38;3.40;;;;;;;;;;4933861;29;20056;-64
2022/10/24 02:02:33;;;;;;;11.73;2.47;;;;;;;;;;4931440;29;20043;-63
2022/10/24 02:05:02;;;;;;;7.75;2.63;;;;;;;;;;4916111;29;20063;-64
2022/10/24 02:07:28;;;;;;;8.80;3.38;;;;;;;;;;4932070;29;20040;-64
2022/10/24 02:09:59;;;;;;;7.00;2.80;;;;;;;;;;4932115;29;20496;-63
2022/10/24 02:12:26;;;;;;;7.65;2.88;;;;;;;;;;4933927;29;20090;-64
2022/10/24 02:14:59;;;;;;;9.95;2.47;;;;;;;;;;4932450;29;20412;-64
2022/10/24 02:17:25;;;;;;;7.93;2.70;;;;;;;;;;4933307;29;20130;-63
2022/10/24 02:19:51;;;;;;;7.10;2.58;;;;;;;;;;4932656;29;20090;-63
2022/10/24 02:22:33;;;;;;;10.13;2.30;;;;;;;;;;4933083;29;20047;-63
2022/10/24 02:25:01;;;;;;;7.72;2.13;;;;;;;;;;4947953;29;20198;-62
2022/10/24 02:27:48;;;;;;;11.82;2.47;;;;;;;;;;4917055;29;20067;-63
2022/10/24 02:30:17;;;;;;;8.63;2.30;;;;;;;;;;4933347;29;20051;-64
2022/10/24 02:32:48;;;;;;;5.82;2.13;;;;;;;;;;4933553;29;20420;-63
2022/10/24 02:35:17;;;;;;;10.73;2.72;;;;;;;;;;4932456;29;20062;-63
2022/10/24 02:37:46;;;;;;;9.73;2.25;;;;;;;;;;4917883;29;20078;-62
2022/10/24 02:40:13;;;;;;;9.27;2.58;;;;;;;;;;4934353;29;20146;-63
2022/10/24 02:42:41;;;;;;;6.70;2.35;;;;;;;;;;4931958;29;20548;-65
2022/10/24 02:45:08;;;;;;;6.75;2.13;;;;;;;;;;4930804;29;20055;-62
2022/10/24 02:47:35;;;;;;;10.23;2.35;;;;;;;;;;4932795;29;20071;-62
2022/10/24 02:50:01;;;;;;;7.47;2.10;;;;;;;;;;4934483;29;20051;-62
2022/10/24 02:52:29;;;;;;;5.20;2.00;;;;;;;;;;4933567;29;20102;-64
2022/10/24 02:54:55;;;;;;;7.90;2.10;;;;;;;;;;4915693;29;20055;-63
2022/10/24 02:57:22;;;;;;;8.38;3.30;;;;;;;;;;4917728;29;20066;-63
2022/10/24 02:59:48;;;;;;;6.95;2.08;;;;;;;;;;4903838;29;20051;-63
2022/10/24 03:02:14;;;;;;;10.15;2.78;;;;;;;;;;4931669;29;20052;-63
2022/10/24 03:04:41;;;;;;;11.00;2.22;;;;;;;;;;4912989;29;20048;-63
2022/10/24 03:07:07;;;;;;;8.73;2.05;;;;;;;;;;4901721;29;20512;-64
2022/10/24 03:09:33;;;;;;;4.32;1.90;;;;;;;;;;4932994;29;20424;-63
2022/10/24 03:11:59;;;;;;;5.68;2.47;;;;;;;;;;4933713;29;20052;-63
2022/10/24 03:14:26;;;;;;;6.57;2.53;;;;;;;;;;4916166;29;20039;-62
2022/10/24 03:16:52;;;;;;;8.15;2.58;;;;;;;;;;4913038;29;20055;-63
2022/10/24 03:19:18;;;;;;;8.07;2.00;;;;;;;;;;4938038;29;20055;-62
2022/10/24 03:21:44;;;;;;;5.88;1.88;;;;;;;;;;4936856;29;20449;-63
2022/10/24 03:24:10;;;;;;;6.88;2.47;;;;;;;;;;4911138;29;20048;-63
2022/10/24 03:26:36;;;;;;;9.02;2.55;;;;;;;;;;4934987;29;20126;-63
2022/10/24 03:29:02;;;;;;;8.27;2.35;;;;;;;;;;4936657;29;20500;-63
2022/10/24 03:31:30;;;;;;;10.30;2.25;;;;;;;;;;4936530;29;20131;-63
2022/10/24 03:33:57;;;;;;;8.43;1.77;;;;;;;;;;4903371;29;20051;-63
2022/10/24 03:36:23;;;;;;;8.38;2.30;;;;;;;;;;4920830;29;20063;-63
2022/10/24 03:38:49;;;;;;;7.40;1.80;;;;;;;;;;4937193;29;20063;-64
2022/10/24 03:41:15;;;;;;;8.85;1.90;;;;;;;;;;4936804;29;20067;-62
2022/10/24 03:43:41;;;;;;;7.03;1.77;;;;;;;;;;4919632;29;20058;-63
2022/10/24 03:46:07;;;;;;;9.63;2.50;;;;;;;;;;4936165;29;20567;-63
2022/10/24 03:48:33;;;;;;;5.93;1.98;;;;;;;;;;4936550;29;20155;-63
2022/10/24 03:50:59;;;;;;;5.55;1.95;;;;;;;;;;4919746;29;20142;-63
2022/10/24 03:53:25;;;;;;;9.60;2.38;;;;;;;;;;4919056;29;20049;-64
2022/10/24 03:55:51;;;;;;;4.80;1.73;;;;;;;;;;4935746;29;20130;-63
2022/10/24 03:58:17;;;;;;;6.88;2.00;;;;;;;;;;4936131;29;20083;-62
2022/10/24 04:00:44;;;;;;;8.35;1.98;;;;;;;;;;4919947;29;20058;-62
2022/10/24 04:03:10;;;;;;;6.68;1.98;;;;;;;;;;4918752;29;20055;-63
2022/10/24 04:05:36;;;;;;;11.45;1.95;;;;;;;;;;4933073;29;20452;-62
2022/10/24 04:08:02;;;;;;;8.07;2.25;;;;;;;;;;4919755;29;20580;-63
2022/10/24 04:10:28;;;;;;;7.13;2.50;;;;;;;;;;4936239;29;20492;-63
2022/10/24 04:12:54;;;;;;;8.55;1.52;;;;;;;;;;4934997;29;20428;-63
2022/10/24 04:15:21;;;;;;;7.75;2.10;;;;;;;;;;4933412;29;20040;-64
2022/10/24 04:17:47;;;;;;;10.23;1.80;;;;;;;;;;4934459;29;20491;-63
2022/10/24 04:20:18;;;;;;;4.95;1.15;;;;;;;;;;4935447;29;20059;-63
2022/10/24 04:22:44;;;;;;;7.93;1.50;;;;;;;;;;4934167;29;20039;-63
2022/10/24 04:25:10;;;;;;;6.05;1.73;;;;;;;;;;4918167;29;20044;-63
2022/10/24 04:27:39;;;;;;;8.75;2.00;;;;;;;;;;4935392;29;20126;-63
2022/10/24 04:30:07;;;;;;;7.32;1.30;;;14.60;99.90;;;;;;4935510;29;20408;-63
2022/10/24 04:32:33;;;;;;;7.80;2.70;;;;;;;;;;4934691;29;20044;-63
2022/10/24 04:34:59;;;;;;;4.70;1.50;;;;;;;;;;4933986;29;20152;-64
2022/10/24 04:37:25;;;;;;;6.70;1.77;;;;;;;;;;4935818;29;20043;-63
2022/10/24 04:39:53;;;;;;;7.72;1.67;;;;;;;;;;4935196;29;20127;-64
2022/10/24 04:42:19;;;;;;;5.82;1.75;;;;;;;;;;4918539;29;20055;-63
2022/10/24 04:44:45;;;;;;;7.68;1.70;;;;;;;;;;4935026;29;20106;-63
2022/10/24 04:47:11;;;;;;;5.38;1.58;;;;;;;;;;4935871;29;20056;-62
2022/10/24 04:49:37;;;;;;;4.53;1.40;;;;;;;;;;4934972;29;20408;-63
2022/10/24 04:52:03;;;;;;;9.80;1.60;;;;;;;;;;4916881;29;20139;-63
2022/10/24 04:54:30;;;;;;;6.72;1.67;;;;;;;;;;4933627;29;20048;-64
2022/10/24 04:56:56;;;;;;;5.75;1.38;;;;;;;;;;4933983;29;20134;-63
2022/10/24 04:59:22;;;;;;;4.10;1.10;;;;;;;;;;4918756;29;20052;-63
2022/10/24 05:01:48;;;;;;;5.28;1.40;;;;;;;;;;4934208;29;20102;-63
2022/10/24 05:04:14;;;;;;;5.63;1.23;;;;;;;;;;4933693;29;20074;-63
2022/10/24 05:06:40;;;;;;;6.53;1.98;;;;;;;;;;4919192;29;20051;-63
2022/10/24 05:09:06;;;;;;;9.50;1.63;;;;;;;;;;4934740;29;20059;-64
2022/10/24 05:11:32;;;;;;;5.82;1.23;;;;;;;;;;4934042;29;20062;-63
2022/10/24 05:13:58;;;;;;;9.07;1.50;;;;;;;;;;4931396;29;20048;-62
2022/10/24 05:16:24;;;;;;;5.38;1.50;;;;;;;;;;4934796;29;20468;-64
2022/10/24 05:18:50;;;;;;;4.32;1.30;;;;;;;;;;4918676;29;20058;-66
2022/10/24 05:21:16;;;;;;;7.50;1.42;;;;;;;;;;4919158;29;20146;-64
2022/10/24 05:23:42;;;;;;;7.00;1.45;;;;;;;;;;4934492;29;20097;-64
2022/10/24 05:26:08;;;;;;;13.10;2.13;;;;;;;;;;4934655;29;20051;-63
2022/10/24 05:28:34;;;;;;;4.75;1.17;;;;;;;;;;4918385;29;20043;-64
2022/10/24 05:31:01;;;;;;;10.45;2.17;;;;;;;;;;4916850;29;20054;-63
2022/10/24 05:33:27;;;;;;;7.53;1.55;;;;;;;;;;4916998;29;20099;-64
2022/10/24 05:35:53;;;;;;;7.82;1.45;;;;;;;;;;4933983;29;20048;-63
2022/10/24 05:38:19;;;;;;;3.95;1.20;;;;;;;;;;4934262;29;20548;-64
2022/10/24 05:40:50;;;;;;;4.75;1.55;;;;;;;;;;4918453;29;20497;-64
2022/10/24 05:43:16;;;;;;;12.65;1.63;;;;;;;;;;4932729;29;20139;-63
2022/10/24 05:45:42;;;;;;;7.38;1.45;;;;;;;;;;4934183;29;20052;-63
2022/10/24 05:48:08;;;;;;;9.35;1.40;;;;;;;;;;4917450;29;20555;-63
2022/10/24 05:50:34;;;;;;;5.63;1.17;;;;;;;;;;4934735;29;20531;-63
2022/10/24 05:53:00;;;;;;;8.07;2.10;;;;;;;;;;4932753;29;20496;-63
2022/10/24 05:55:27;;;;;;;5.95;1.17;;;;;;;;;;4935238;29;20051;-64
2022/10/24 05:57:53;;;;;;;7.43;1.42;;;;;;;;;;4934226;29;20078;-63
2022/10/24 06:00:19;;;;;;;4.65;1.33;;;;;;;;;;4934103;29;20059;-64
2022/10/24 06:02:45;;;;;;;6.25;1.02;;;;;;;;;;4931761;29;20055;-64
2022/10/24 06:05:12;;;;;;;3.97;0.93;;;;;;;;;;4930670;29;20050;-64
2022/10/24 06:07:40;;;;;;;8.40;1.10;;;;;;;;;;4935194;29;20051;-64
2022/10/24 06:10:07;;;;;;;8.55;1.30;;;;;;;;;;4916803;29;20051;-64
2022/10/24 06:12:35;;;;;;;7.97;1.23;;;;;;;;;;4916582;29;20058;-63
2022/10/24 06:15:01;;;;;;;4.45;0.85;;;;;;;;;;4916729;29;20054;-64
2022/10/24 06:17:27;;;;;;;6.70;1.25;;;;;;;;;;4934125;29;20069;-64
2022/10/24 06:19:53;;;;;;;9.18;1.52;;;;;;;;;;4934593;29;20229;-63
2022/10/24 06:22:22;;;;;;;8.88;1.40;;;;;;;;;;4933338;29;20075;-63
2022/10/24 06:24:49;;;;;;;7.38;2.97;;;;;;;;;;4931910;29;20181;-63
2022/10/24 06:27:15;;;;;;;7.50;0.88;;;;;;;;;;4932155;29;20111;-64
2022/10/24 06:29:41;;;;;;;10.05;1.60;;;;;;;;;;4917373;29;20095;-63
2022/10/24 06:32:08;;;;;;;8.38;1.38;;;;;;;;;;4933710;29;20048;-63
2022/10/24 06:34:34;;;;;;;8.40;1.38;;;;;;;;;;4933544;29;20067;-63
2022/10/24 06:37:00;;;;;;;6.25;1.08;;;;;;;;;;4930601;29;20139;-63
2022/10/24 06:39:26;;;;;;;4.80;1.17;;;;;;;;;;4933230;29;20056;-62
2022/10/24 06:41:52;;;;;;;10.77;1.48;;;;;;;;;;4916663;29;20046;-64
2022/10/24 06:44:18;;;;;;;6.40;1.10;;;;;;;;;;4932391;29;20411;-63
2022/10/24 06:46:44;;;;;;;9.45;1.40;;;;;;;;;;4934557;29;20051;-63
2022/10/24 06:49:11;;;;;;;5.10;1.23;;;;;;;;;;4927100;29;20052;-63
2022/10/24 06:51:38;;;;;;;7.70;1.70;;;;;;;;;;4916741;29;20484;-63
2022/10/24 06:54:04;;;;;;;4.13;1.25;;;;;;;;;;4933626;29;20095;-63
2022/10/24 06:56:30;;;;;;;6.50;1.20;;;;;;;;;;4933738;29;20496;-63
2022/10/24 06:58:56;;;;;;;8.57;1.08;;;;;;;;;;4931732;29;20153;-67
2022/10/24 07:01:23;;;;;;;9.75;1.05;;;;;;;;;;4932473;29;20492;-63
2022/10/24 07:03:49;;;;;;;6.85;1.33;;;;;;;;;;4934311;29;20481;-63
2022/10/24 07:06:17;;;;;;;6.25;1.33;;;;;;;;;;4933217;29;20036;-63
2022/10/24 07:08:43;;;;;;;5.90;1.05;;;;;;;;;;4932721;29;20092;-63
2022/10/24 07:11:09;;;;;;;4.35;1.27;;;;;;;;;;4930630;29;20365;-64
2022/10/24 07:13:35;;;;;;;7.60;1.27;;;;;;;;;;4934129;29;20114;-63
2022/10/24 07:16:01;;;;;;;7.53;1.30;;;;;;;;;;4901462;29;20472;-63
2022/10/24 07:18:27;;;;;;;8.18;1.45;;;;;;;;;;4918919;29;20074;-64
2022/10/24 07:20:53;;;;;;;3.78;1.25;;;;;;;;;;4912312;29;20102;-64
2022/10/24 07:23:19;;;;;;;7.72;1.65;;;;;;;;;;4933995;29;20496;-64
2022/10/24 07:25:45;;;;;;;5.88;1.38;;;;;;;;;;4931467;29;20439;-64
2022/10/24 07:28:12;;;;;;;7.72;1.38;;;;;;;;;;4916343;29;20054;-65
2022/10/24 07:30:38;;;;;;;6.90;0.82;;;;;;;;;;4916631;29;20048;-64
2022/10/24 07:33:05;;;;;;;6.65;1.35;;;;;;;;;;4931402;29;20436;-64
2022/10/24 07:35:31;;;;;;;5.18;1.15;;;;;;;;;;4931428;29;20494;-64
2022/10/24 07:37:57;;;;;;;8.13;1.45;;;;;;;;;;4925504;29;20115;-64
2022/10/24 07:40:23;;;;;;;11.48;1.35;;;;;;;;;;4928987;29;20055;-65
2022/10/24 07:42:49;;;;;;;9.57;1.45;;;;;;;;;;4931925;29;20504;-64
2022/10/24 07:45:15;;;;;;;6.50;1.30;;;;;;;;;;4917789;29;20447;-63
2022/10/24 07:47:41;;;;;;;9.60;1.42;;;;;;;;;;4915902;29;20056;-63
2022/10/24 07:50:08;;;;;;;11.88;2.15;;;;;;;;;;4930962;29;20488;-63
2022/10/24 07:52:34;;;;;;;7.15;1.10;;;;;;;;;;4933107;29;20134;-66
2022/10/24 07:55:00;;;;;;;5.60;1.20;;;;;;;;;;4915907;29;20048;-64
2022/10/24 07:57:26;;;;;;;7.43;1.33;;;;;;;;;;4931254;29;20095;-63
2022/10/24 07:59:53;;;;;;;6.03;1.30;;;;;;;;;;4931642;29;20058;-64
2022/10/24 08:02:19;;;;;;;13.32;2.95;;;;;;;;;;4938770;29;20098;-64
2022/10/24 08:04:45;;;;;;;9.30;1.60;;;;;;;;;;4937797;29;20115;-64
2022/10/24 08:07:14;;;;;;;5.85;1.17;;;;;;;;;;4935642;29;20059;-64
2022/10/24 08:09:42;;;;;;;7.07;1.48;;;;;;;;;;4934178;29;20099;-63
2022/10/24 08:12:08;;;;;;;7.43;1.38;;;;;;;;;;4926709;29;20056;-66
2022/10/24 08:14:36;;;;;;;4.90;1.10;;;;;;;;;;4934611;29;20036;-63
2022/10/24 08:17:02;;;;;;;9.45;1.70;;;;;;;;;;4935667;29;20044;-64
2022/10/24 08:19:28;;;;;;;3.67;1.20;;;;;;;;;;4936663;29;20403;-64
2022/10/24 08:21:54;;;;;;;9.25;1.17;;;;;;;;;;4935483;29;20052;-64
2022/10/24 08:24:20;;;;;;;10.68;1.65;;;;;;;;;;4936932;29;20058;-64
2022/10/24 08:26:46;;;;;;;7.30;1.48;;;;;;;;;;4936801;29;20102;-65
2022/10/24 08:29:13;;;;;;;7.40;1.52;;;;;;;;;;4934656;29;20498;-63
2022/10/24 08:31:40;;;;;;;9.75;1.77;;;;;;;;;;4919423;29;20043;-64
2022/10/24 08:34:06;;;;;;;7.05;1.75;;;;;;;;;;4940611;29;20039;-64
2022/10/24 08:36:35;;;;;;;9.35;1.65;;;;;;;;;;4946066;29;20039;-64
2022/10/24 08:39:02;;;;;;;10.43;1.92;;;;;;;;;;4938438;29;20055;-64
2022/10/24 08:41:28;;;;;;;8.77;1.42;;;;;;;;;;4934720;29;20476;-64
2022/10/24 08:43:54;;;;;;;7.22;1.70;;;;;;;;;;4936194;29;20095;-64
2022/10/24 08:46:20;;;;;;;8.10;1.30;;;;;;;;;;4933121;29;20071;-63
2022/10/24 08:48:49;;;;;;;12.82;1.98;;;;;;;;;;4934003;29;20036;-63
2022/10/24 08:51:18;;;;;;;9.25;1.63;;;;;;;;;;4933319;29;20045;-63
2022/10/24 08:53:46;;;;;;;9.98;1.33;;;;;;;;;;4934431;29;20039;-63
2022/10/24 08:56:12;;;;;;;6.25;1.42;;;;;;;;;;4944339;29;20102;-63
2022/10/24 08:58:41;;;;;;;9.43;2.80;;;;;;;;;;4924785;29;20475;-63
2022/10/24 09:01:12;;;;;;;8.48;1.55;;;;;;;;;;4939494;29;20087;-63
2022/10/24 09:03:38;;;;;;;8.98;1.55;;;;;;;;;;4933194;29;20126;-63
2022/10/24 09:06:18;;;;;;;8.25;1.52;;;;;;;;;;4936458;29;20127;-63
2022/10/24 09:08:52;;;;;;;11.48;1.48;;;;;;;;;;4954477;29;20086;-64
2022/10/24 09:11:27;;;;;;;7.95;1.30;;;;;;;;;;4944502;29;20083;-64
2022/10/24 09:13:54;;;;;;;7.97;1.55;;;;;;;;;;4934158;29;20045;-63
2022/10/24 09:16:22;;;;;;;9.18;2.28;;;;;;;;;;4950557;29;20050;-62
2022/10/24 09:18:50;;;;;;;6.88;1.30;;;;;;;;;;4937275;29;20130;-63
2022/10/24 09:21:17;;;;;;;9.43;1.08;;;;;;;;;;4927892;29;20440;-63
2022/10/24 09:23:43;;;;;;;5.30;1.45;;;;;;;;;;4949809;29;20051;-63
2022/10/24 09:26:15;;;;;;;5.10;1.83;;;;;;;;;;4927999;29;20040;-62
2022/10/24 09:28:41;;;;;;;4.93;0.90;;;;;;;;;;4931396;29;20044;-63
2022/10/24 09:31:21;;;;;;;6.60;0.98;;;;;;;;;;4939154;29;20571;-63
2022/10/24 09:33:48;;;;;;;6.28;1.10;;;;;;;;;;4935811;29;20434;-62
2022/10/24 09:36:16;;;;;;;7.75;1.42;;;;;;;;;;4945634;29;20384;-63
2022/10/24 09:38:43;;;;;;;8.32;1.50;;;;;;;;;;4930007;29;20056;-62
2022/10/24 09:41:12;;;;;;;7.88;1.30;;;;;;;;;;4939467;29;20917;-63
2022/10/24 09:43:45;;;;;;;4.82;1.08;;;;;;;;;;4932743;29;20091;-64
2022/10/24 09:46:17;;;;;;;5.22;1.05;;;;;;;;;;4933732;29;20134;-63
2022/10/24 09:48:49;;;;;;;9.48;1.70;;;;;;;;;;4935252;29;20048;-62
2022/10/24 09:51:21;;;;;;;5.32;1.20;;;;;;;;;;4921559;29;20085;-63
2022/10/24 09:54:22;;;;;;;15.52;1.83;;;;;;;;;;4932787;29;20083;-62
2022/10/24 09:57:10;;;;;;;6.88;1.30;;;16.50;99.90;;;;;;4906920;29;20043;-62
2022/10/24 09:59:40;;;;;;;11.02;2.10;;;;;;;;;;4932727;29;20051;-62
2022/10/24 10:02:18;;;;;;;6.57;1.50;;;;;;;;;;4932520;29;20075;-63
2022/10/24 10:04:45;;;;;;;8.10;1.83;;;;;;;;;;4932741;29;20107;-63
2022/10/24 10:07:16;;;;;;;5.45;1.20;;;;;;;;;;4933993;29;20107;-63
2022/10/24 10:09:50;;;;;;;7.85;1.20;;;;;;;;;;4932759;29;20441;-62
2022/10/24 10:12:34;;;;;;;5.20;1.00;;;;;;;;;;4918316;29;20138;-62
2022/10/24 10:15:01;;;;;;;4.38;1.23;;;;;;;;;;4933515;29;20526;-63
2022/10/24 10:17:30;;;;;;;6.47;1.45;;;;;;;;;;4934943;29;20139;-63
2022/10/24 10:19:56;;;;;;;4.40;1.10;;;;;;;;;;4932874;29;20051;-65
2022/10/24 10:22:30;;;;;;;6.45;1.15;;;;;;;;;;4933894;29;20412;-63
2022/10/24 10:24:56;;;;;;;5.40;1.00;;;;;;;;;;4922267;29;20048;-64
2022/10/24 10:27:26;;;;;;;9.68;1.65;;;;;;;;;;4917777;29;20134;-63
2022/10/24 10:30:07;;;;;;;4.22;0.90;;;;;;;;;;4934232;29;20058;-63
2022/10/24 10:32:39;;;;;;;8.82;1.40;;;;;;;;;;4932694;29;20048;-64
2022/10/24 10:35:19;;;;;;;9.32;1.40;;;;;;;;;;4933587;29;20043;-64
2022/10/24 10:37:55;;;;;;;7.80;1.97;;;;;;;;;;4932704;29;20156;-64
2022/10/24 10:40:28;;;;;;;12.43;2.40;;;;;;;;;;4898407;29;20314;-63
2022/10/24 10:43:16;;;;;;;6.57;1.55;;;;;;;;;;4913930;29;20080;-63
2022/10/24 10:45:46;;;;;;;6.45;1.13;;;;;;;;;;4927885;29;20058;-64
2022/10/24 10:48:16;;;;;;;7.53;1.35;;;;;;;;;;4932208;29;20122;-64
2022/10/24 10:50:49;;;;;;;7.30;1.00;;;;;;;;;;4931953;29;20059;-63
2022/10/24 10:53:21;;;;;;;4.95;1.25;;;;;;;;;;4933425;29;20400;-64
2022/10/24 10:55:50;;;;;;;12.50;1.92;;;;;;;;;;4933718;29;20175;-64
2022/10/24 10:58:26;;;;;;;7.18;2.33;;;;;;;;;;4914716;29;20052;-64
2022/10/24 11:01:11;;;;;;;5.43;0.80;;;;;;;;;;4932244;29;20521;-63
2022/10/24 11:03:45;;;;;;;7.03;1.23;;;;;;;;;;4930504;29;20134;-64
2022/10/24 11:06:25;;;;;;;3.60;0.82;;;;;;;;;;4903021;29;20145;-64
2022/10/24 11:09:03;;;;;;;5.57;1.17;;;;;;;;;;4902917;29;20055;-64
2022/10/24 11:11:31;;;;;;;6.53;0.98;;;;;;;;;;4928620;29;20098;-65
2022/10/24 11:13:58;;;;;;;7.93;1.27;;;;;;;;;;4923233;29;20051;-64
2022/10/24 11:16:28;;;;;;;8.40;1.38;;;;;;;;;;4915928;29;20091;-65
2022/10/24 11:18:56;;;;;;;3.67;0.98;;;;;;;;;;4931049;29;20091;-65
2022/10/24 11:21:25;;;;;;;9.25;1.38;;;;;;;;;;4917044;29;20052;-63
2022/10/24 11:24:00;;;;;;;4.30;1.20;;;;;;;;;;4915610;29;20052;-64
2022/10/24 11:26:51;;;;;;;5.68;0.70;;;17.40;99.90;;;;;;4930836;29;20056;-64
2022/10/24 11:29:23;;;;;;;2.53;0.55;;;;;;;;;;4920304;29;20032;-64
2022/10/24 11:31:52;;;;;;;10.38;1.35;;;;;;;;;;4933447;29;20052;-64
2022/10/24 11:34:25;;;;;;;9.40;1.27;;;;;;;;;;4923884;29;20071;-64
2022/10/24 11:37:04;;;;;;;6.10;0.90;;;;;;;;;;4927818;29;20048;-65
2022/10/24 11:39:51;;;;;;;10.18;1.20;;;17.60;99.90;;;;;;4928415;29;20143;-66
2022/10/24 11:42:25;;;;;;;5.30;1.13;;;;;;;;;;4925688;29;20052;-64
2022/10/24 11:44:54;;;;;;;5.63;1.30;;;;;;;;;;4927040;29;20108;-64
2022/10/24 11:47:23;;;;;;;6.65;1.10;;;;;;;;;;4929534;29;20090;-64
2022/10/24 11:50:09;;;;;;;4.78;1.05;;;;;;;;;;4931596;29;20146;-64
2022/10/24 11:52:39;;;;;;;6.22;1.02;;;;;;;;;;4928917;29;20056;-64
2022/10/24 11:55:07;;;;;;;7.00;1.07;;;;;;;;;;4928214;29;20493;-64
2022/10/24 11:57:33;;;;;;;5.13;1.42;;;;;;;;;;4915394;29;20044;-64
2022/10/24 11:59:59;;;;;;;9.82;1.60;;;;;;;;;;4926889;29;20319;-64
2022/10/24 12:02:35;;;;;;;9.85;1.80;;;;;;;;;;4925354;29;20083;-65
2022/10/24 12:05:01;;;;;;;5.25;1.10;;;;;;;;;;4928574;29;20059;-66
2022/10/24 12:07:33;;;;;;;4.88;1.52;;;;;;;;;;4929135;29;20044;-64
2022/10/24 12:10:05;;;;;;;3.78;0.90;;;;;;;;;;4928131;29;20066;-64
2022/10/24 12:12:46;;;;;;;5.68;1.10;;;;;;;;;;4912583;29;20054;-65
2022/10/24 12:15:42;;;;;;;5.68;1.45;;;17.40;99.90;;;;;;4926343;29;20063;-64
2022/10/24 12:18:21;;;;;;;4.97;0.80;;;;;;;;;;4925924;29;20046;-64
2022/10/24 12:20:51;;;;;;;9.20;1.00;;;;;;;;;;4928936;29;20490;-64
2022/10/24 12:23:20;;;;;;;13.50;1.27;;;;;;;;;;4922967;29;20442;-65
2022/10/24 12:25:47;;;;;;;6.03;1.48;;;;;;;;;;4913207;29;20147;-64
2022/10/24 12:28:21;;;;;;;5.53;0.90;;;;;;;;;;4929877;29;20036;-65
2022/10/24 12:31:05;;;;;;;7.85;1.25;;;;;;;;;;4925534;29;20054;-64
2022/10/24 12:33:31;;;;;;;4.45;0.93;;;;;;;;;;4930582;29;20048;-65
2022/10/24 12:35:58;;;;;;;4.13;0.88;;;;;;;;;;4933590;29;20153;-64
2022/10/24 12:38:27;;;;;;;5.07;0.93;;;;;;;;;;4930076;29;20055;-63
2022/10/24 12:40:55;;;;;;;5.93;1.52;;;;;;;;;;4917506;29;20051;-64
2022/10/24 12:43:30;;;;;;;6.93;1.05;;;;;;;;;;4934787;29;20146;-65
2022/10/24 12:45:59;;;;;;;4.75;1.05;;;;;;;;;;4933474;29;20044;-64
2022/10/24 12:48:29;;;;;;;3.13;0.82;;;;;;;;;;4928482;29;20047;-65
2022/10/24 12:50:57;;;;;;;14.60;1.60;;;;;;;;;;4940469;29;20506;-65
2022/10/24 12:53:49;;;;;;;4.35;0.93;;;;;;;;;;4930068;29;20472;-65
2022/10/24 12:56:16;;;;;;;6.80;1.20;;;;;;;;;;4888504;29;20048;-64
2022/10/24 12:58:44;;;;;;;5.30;0.82;;;;;;;;;;4934748;29;20483;-64
2022/10/24 13:01:10;;;;;;;4.00;1.02;;;;;;;;;;4933415;29;20086;-65
2022/10/24 13:03:39;;;;;;;6.53;1.52;;;;;;;;;;4930481;29;20070;-65
2022/10/24 13:06:14;;;;;;;4.38;0.90;;;;;;;;;;4936044;29;20059;-64
2022/10/24 13:09:12;;;;;;;6.50;0.90;;;18.10;99.90;;;;;;4934246;29;20040;-65
2022/10/24 13:12:06;;;;;;;6.15;1.13;;;17.50;99.90;;;;;;4902631;29;20043;-64
2022/10/24 13:14:33;;;;;;;3.35;0.90;;;;;;;;;;4934574;29;20484;-65
2022/10/24 13:17:18;;;;;;;6.30;1.25;;;;;;;;;;4932416;29;20540;-65
2022/10/24 13:19:44;;;;;;;3.65;0.75;;;;;;;;;;4934152;29;20094;-66
2022/10/24 13:22:29;;;;;;;6.70;1.30;;;;;;;;;;4933778;29;20055;-65
2022/10/24 13:24:56;;;;;;;4.50;1.17;;;;;;;;;;4933326;29;20082;-64
2022/10/24 13:27:24;;;;;;;7.60;1.00;;;;;;;;;;4914223;29;20040;-65
2022/10/24 13:29:50;;;;;;;7.05;1.05;;;;;;;;;;4920152;29;20083;-71
2022/10/24 13:32:16;;;;;;;2.42;0.80;;;;;;;;;;4932225;29;20449;-66
2022/10/24 13:34:51;;;;;;;5.95;1.13;;;;;;;;;;4934137;29;20090;-67
2022/10/24 13:37:23;;;;;;;4.30;1.05;;;;;;;;;;4918582;29;20048;-64
2022/10/24 13:39:51;;;;;;;5.18;0.80;;;;;;;;;;4917636;29;20059;-67
2022/10/24 13:42:23;;;;;;;2.85;0.70;;;;;;;;;;4918482;29;20151;-65
2022/10/24 13:44:50;;;;;;;4.97;0.98;;;;;;;;;;4948160;29;20047;-66
2022/10/24 13:47:22;;;;;;;7.30;1.48;;;;;;;;;;4917487;29;20043;-66
2022/10/24 13:50:05;;;;;;;2.53;0.82;;;;;;;;;;4933622;29;20071;-66
2022/10/24 13:52:43;;;;;;;5.05;0.90;;;;;;;;;;4934019;29;20043;-65
2022/10/24 13:55:17;;;;;;;2.63;0.82;;;;;;;;;;4931049;29;20106;-66
2022/10/24 13:57:54;;;;;;;5.68;1.30;;;;;;;;;;4932868;29;20055;-66
2022/10/24 14:00:25;;;;;;;2.67;0.65;;;;;;;;;;4932871;29;20476;-65
2022/10/24 14:02:52;;;;;;;9.75;1.27;;;;;;;;;;4917131;29;20429;-66
2022/10/24 14:05:48;;;;;;;7.00;2.05;;;17.00;99.90;;;;;;4926606;29;20957;-66
2022/10/24 14:08:23;;;;;;;5.07;0.90;;;;;;;;;;4902208;29;20357;-65
2022/10/24 14:10:51;;;;;;;4.95;1.00;;;;;;;;;;4915681;29;20129;-65
2022/10/24 14:13:18;;;;;;;5.72;0.80;;;;;;;;;;4929850;29;20055;-65
2022/10/24 14:15:49;;;;;;;3.80;0.90;;;;;;;;;;4915925;29;20066;-65
2022/10/24 14:18:15;;;;;;;3.47;1.45;;;;;;;;;;4939323;29;20098;-66
2022/10/24 14:20:41;;;;;;;6.50;1.00;;;;;;;;;;4949230;29;20047;-64
2022/10/24 14:23:28;;;;;;;4.57;0.98;;;;;;;;;;4916897;29;20131;-66
2022/10/24 14:26:05;;;;;;;7.65;1.20;;;;;;;;;;4931405;29;20047;-65
2022/10/24 14:28:43;;;;;;;3.53;0.93;;;;;;;;;;4935273;29;20043;-66
2022/10/24 14:31:21;;;;;;;5.07;0.93;;;;;;;;;;4932399;29;20321;-67
2022/10/24 14:33:50;;;;;;;3.75;0.93;;;;;;;;;;4916529;29;20044;-66
2022/10/24 14:36:19;;;;;;;5.85;1.52;;;;;;;;;;4915832;29;20099;-67
2022/10/24 14:38:45;;;;;;;7.65;1.55;;;;;;;;;;4923560;29;20396;-65
2022/10/24 14:41:11;;;;;;;7.00;1.40;;;;;;;;;;4931837;29;20043;-65
2022/10/24 14:43:41;;;;;;;7.40;1.65;;;;;;;;;;4930980;29;20062;-66
2022/10/24 14:46:16;;;;;;;8.53;2.63;;;;;;;;;;4933821;29;20047;-65
2022/10/24 14:48:44;;;;;;;6.18;1.60;;;;;;;;;;4917498;29;20091;-65
2022/10/24 14:51:33;;;;;;;4.13;1.30;;;;;;;;;;4932472;29;20056;-66